McCarran, Nevada
Current Conditions -  °F | °C
As of 8:55 AM on Tuesday 27 Jan 2015 (Local Time) from KRNO Reporting Station
Light Rain Light Rain  
Wind Chill: 43°   Ceiling: 3500
Heat Index: 45°   Visibility: 10mi
Dew Point: 39°   Wind: 5mph
Humidity: 80%   Direction: 90°E
Pressure: 30.17"   Gusts: NA
Location:  39.5403°N, 119.672°W
Report Text: KRNO 271655Z 09004KT 10SM -RA BR FEW025 OVC035 07/04 A3017 RMK AO2 SLP202 MTN TOPS OBSCD SE-SW-NW DSNT NE P0002 T00720039
Loading
Personal Weather Stations






























Interactive Weather Map New forecast layout! Learn more

10-Day Weather Forecast

Advertisements
Track Severe Weather on mobile